TAF Text Data
IDs:
Format:
Raw Decoded Include METAR

Data at: 0311 UTC 19 Oct 2021

KDRT 182322Z 1900/1924 12012KT P6SM BKN250
  FM191100 12010KT P6SM SCT018 BKN250
  FM191600 14015KT P6SM FEW035 BKN250